sensor_id;sensor_type;location;lat;lon;timestamp;temperature;humidity
13585;DHT22;6863;48.402;9.994;2022-09-09T00:00:18;12.20;99.90
13585;DHT22;6863;48.402;9.994;2022-09-09T00:03:01;12.10;99.90
13585;DHT22;6863;48.402;9.994;2022-09-09T00:05:32;12.00;99.90
13585;DHT22;6863;48.402;9.994;2022-09-09T00:08:02;11.90;99.90
13585;DHT22;6863;48.402;9.994;2022-09-09T00:10:39;11.80;99.90
13585;DHT22;6863;48.402;9.994;2022-09-09T00:15:47;11.70;99.90
13585;DHT22;6863;48.402;9.994;2022-09-09T00:18:35;11.60;99.90
13585;DHT22;6863;48.402;9.994;2022-09-09T00:21:08;11.60;99.90
13585;DHT22;6863;48.402;9.994;2022-09-09T00:23:42;11.50;99.90
13585;DHT22;6863;48.402;9.994;2022-09-09T00:26:17;11.50;99.90
13585;DHT22;6863;48.402;9.994;2022-09-09T00:28:55;11.50;99.90
13585;DHT22;6863;48.402;9.994;2022-09-09T00:31:28;11.50;99.90
13585;DHT22;6863;48.402;9.994;2022-09-09T00:34:16;11.50;99.90
13585;DHT22;6863;48.402;9.994;2022-09-09T00:36:44;11.50;99.90
13585;DHT22;6863;48.402;9.994;2022-09-09T00:45:02;11.40;99.90
13585;DHT22;6863;48.402;9.994;2022-09-09T00:47:40;11.50;99.90
13585;DHT22;6863;48.402;9.994;2022-09-09T00:50:31;11.50;99.90
13585;DHT22;6863;48.402;9.994;2022-09-09T00:56:17;11.40;99.90
13585;DHT22;6863;48.402;9.994;2022-09-09T01:01:37;11.40;99.90
13585;DHT22;6863;48.402;9.994;2022-09-09T01:04:11;11.50;99.90
13585;DHT22;6863;48.402;9.994;2022-09-09T01:06:41;11.60;99.90
13585;DHT22;6863;48.402;9.994;2022-09-09T01:14:48;11.60;99.90
13585;DHT22;6863;48.402;9.994;2022-09-09T01:25:29;11.40;99.90
13585;DHT22;6863;48.402;9.994;2022-09-09T01:28:04;11.30;99.90
13585;DHT22;6863;48.402;9.994;2022-09-09T01:30:37;11.30;99.90
13585;DHT22;6863;48.402;9.994;2022-09-09T01:33:03;11.20;99.90
13585;DHT22;6863;48.402;9.994;2022-09-09T01:36:02;11.20;99.90
13585;DHT22;6863;48.402;9.994;2022-09-09T01:38:31;11.20;99.90
13585;DHT22;6863;48.402;9.994;2022-09-09T01:40:57;11.20;99.90
13585;DHT22;6863;48.402;9.994;2022-09-09T01:43:24;11.20;99.90
13585;DHT22;6863;48.402;9.994;2022-09-09T01:45:53;11.30;99.90
13585;DHT22;6863;48.402;9.994;2022-09-09T01:48:21;11.30;99.90
13585;DHT22;6863;48.402;9.994;2022-09-09T01:50:47;11.30;99.90
13585;DHT22;6863;48.402;9.994;2022-09-09T01:53:15;11.30;99.90
13585;DHT22;6863;48.402;9.994;2022-09-09T01:55:55;11.30;99.90
13585;DHT22;6863;48.402;9.994;2022-09-09T02:03:32;11.20;99.90
13585;DHT22;6863;48.402;9.994;2022-09-09T02:06:27;11.20;99.90
13585;DHT22;6863;48.402;9.994;2022-09-09T02:08:56;11.10;99.90
13585;DHT22;6863;48.402;9.994;2022-09-09T02:11:27;11.00;99.90
13585;DHT22;6863;48.402;9.994;2022-09-09T02:14:01;11.00;99.90
13585;DHT22;6863;48.402;9.994;2022-09-09T02:16:44;10.90;99.90
13585;DHT22;6863;48.402;9.994;2022-09-09T02:19:20;10.90;99.90
13585;DHT22;6863;48.402;9.994;2022-09-09T02:21:55;10.80;99.90
13585;DHT22;6863;48.402;9.994;2022-09-09T02:24:21;10.80;99.90
13585;DHT22;6863;48.402;9.994;2022-09-09T02:26:50;10.80;99.90
13585;DHT22;6863;48.402;9.994;2022-09-09T02:29:25;10.80;99.90
13585;DHT22;6863;48.402;9.994;2022-09-09T02:31:52;10.70;99.90
13585;DHT22;6863;48.402;9.994;2022-09-09T02:34:23;10.80;99.90
13585;DHT22;6863;48.402;9.994;2022-09-09T02:36:53;10.80;99.90
13585;DHT22;6863;48.402;9.994;2022-09-09T02:39:19;10.70;99.90
13585;DHT22;6863;48.402;9.994;2022-09-09T02:41:44;10.70;99.90
13585;DHT22;6863;48.402;9.994;2022-09-09T02:44:15;10.70;99.90
13585;DHT22;6863;48.402;9.994;2022-09-09T02:52:19;10.60;99.90
13585;DHT22;6863;48.402;9.994;2022-09-09T02:54:47;10.60;99.90
13585;DHT22;6863;48.402;9.994;2022-09-09T02:57:22;10.60;99.90
13585;DHT22;6863;48.402;9.994;2022-09-09T02:59:49;10.60;99.90
13585;DHT22;6863;48.402;9.994;2022-09-09T03:02:15;10.60;99.90
13585;DHT22;6863;48.402;9.994;2022-09-09T03:04:41;10.70;99.90
13585;DHT22;6863;48.402;9.994;2022-09-09T03:07:10;10.70;99.90
13585;DHT22;6863;48.402;9.994;2022-09-09T03:09:35;10.70;99.90
13585;DHT22;6863;48.402;9.994;2022-09-09T03:12:01;10.90;99.90
13585;DHT22;6863;48.402;9.994;2022-09-09T03:14:29;11.00;99.90
13585;DHT22;6863;48.402;9.994;2022-09-09T03:16:56;11.10;99.90
13585;DHT22;6863;48.402;9.994;2022-09-09T03:19:23;11.10;99.90
13585;DHT22;6863;48.402;9.994;2022-09-09T03:21:49;11.20;99.90
13585;DHT22;6863;48.402;9.994;2022-09-09T03:24:14;11.20;99.90
13585;DHT22;6863;48.402;9.994;2022-09-09T03:26:41;11.30;99.90
13585;DHT22;6863;48.402;9.994;2022-09-09T03:29:10;11.30;99.90
13585;DHT22;6863;48.402;9.994;2022-09-09T03:31:38;11.40;99.90
13585;DHT22;6863;48.402;9.994;2022-09-09T03:34:04;11.50;99.90
13585;DHT22;6863;48.402;9.994;2022-09-09T03:36:30;11.50;99.90
13585;DHT22;6863;48.402;9.994;2022-09-09T03:38:56;11.60;99.90
13585;DHT22;6863;48.402;9.994;2022-09-09T03:41:22;11.70;99.90
13585;DHT22;6863;48.402;9.994;2022-09-09T03:43:53;11.60;99.90
13585;DHT22;6863;48.402;9.994;2022-09-09T03:46:20;11.80;99.90
13585;DHT22;6863;48.402;9.994;2022-09-09T03:48:46;11.90;99.90
13585;DHT22;6863;48.402;9.994;2022-09-09T03:51:12;11.90;99.90
13585;DHT22;6863;48.402;9.994;2022-09-09T03:53:37;12.00;99.90
13585;DHT22;6863;48.402;9.994;2022-09-09T03:56:04;12.00;99.90
13585;DHT22;6863;48.402;9.994;2022-09-09T03:58:33;12.10;99.90
13585;DHT22;6863;48.402;9.994;2022-09-09T04:01:04;12.10;99.90
13585;DHT22;6863;48.402;9.994;2022-09-09T04:03:31;12.10;99.90
13585;DHT22;6863;48.402;9.994;2022-09-09T04:05:58;12.10;99.90
13585;DHT22;6863;48.402;9.994;2022-09-09T04:08:24;12.10;99.90
13585;DHT22;6863;48.402;9.994;2022-09-09T04:10:50;12.00;99.90
13585;DHT22;6863;48.402;9.994;2022-09-09T04:13:17;12.00;99.90
13585;DHT22;6863;48.402;9.994;2022-09-09T04:15:51;12.00;99.90
13585;DHT22;6863;48.402;9.994;2022-09-09T04:18:17;12.00;99.90
13585;DHT22;6863;48.402;9.994;2022-09-09T04:20:42;12.00;99.90
13585;DHT22;6863;48.402;9.994;2022-09-09T04:23:09;12.10;99.90
13585;DHT22;6863;48.402;9.994;2022-09-09T04:25:34;12.10;99.90
13585;DHT22;6863;48.402;9.994;2022-09-09T04:28:00;12.10;99.90
13585;DHT22;6863;48.402;9.994;2022-09-09T04:30:25;12.20;99.90
13585;DHT22;6863;48.402;9.994;2022-09-09T04:32:52;12.20;99.90
13585;DHT22;6863;48.402;9.994;2022-09-09T04:35:18;12.30;99.90
13585;DHT22;6863;48.402;9.994;2022-09-09T04:37:45;12.30;99.90
13585;DHT22;6863;48.402;9.994;2022-09-09T04:40:11;12.40;99.90
13585;DHT22;6863;48.402;9.994;2022-09-09T04:42:38;12.40;99.90
13585;DHT22;6863;48.402;9.994;2022-09-09T04:45:05;12.40;99.90
13585;DHT22;6863;48.402;9.994;2022-09-09T04:47:31;12.40;99.90
13585;DHT22;6863;48.402;9.994;2022-09-09T04:49:57;12.40;99.90
13585;DHT22;6863;48.402;9.994;2022-09-09T04:52:22;12.50;99.90
13585;DHT22;6863;48.402;9.994;2022-09-09T04:54:48;12.40;99.90
13585;DHT22;6863;48.402;9.994;2022-09-09T04:57:13;12.40;99.90
13585;DHT22;6863;48.402;9.994;2022-09-09T04:59:39;12.40;99.90
13585;DHT22;6863;48.402;9.994;2022-09-09T05:02:05;12.50;99.90
13585;DHT22;6863;48.402;9.994;2022-09-09T05:04:31;12.50;99.90
13585;DHT22;6863;48.402;9.994;2022-09-09T05:06:56;12.50;99.90
13585;DHT22;6863;48.402;9.994;2022-09-09T05:09:22;12.60;99.90
13585;DHT22;6863;48.402;9.994;2022-09-09T05:11:48;12.60;99.90
13585;DHT22;6863;48.402;9.994;2022-09-09T05:14:14;12.60;99.90
13585;DHT22;6863;48.402;9.994;2022-09-09T05:16:40;12.70;99.90
13585;DHT22;6863;48.402;9.994;2022-09-09T05:19:06;12.70;99.90
13585;DHT22;6863;48.402;9.994;2022-09-09T05:21:33;12.70;99.90
13585;DHT22;6863;48.402;9.994;2022-09-09T05:23:59;12.80;99.90
13585;DHT22;6863;48.402;9.994;2022-09-09T05:26:26;12.80;99.90
13585;DHT22;6863;48.402;9.994;2022-09-09T05:28:51;12.80;99.90
13585;DHT22;6863;48.402;9.994;2022-09-09T05:31:18;12.80;99.90
13585;DHT22;6863;48.402;9.994;2022-09-09T05:33:45;12.90;99.90
13585;DHT22;6863;48.402;9.994;2022-09-09T05:36:13;12.90;99.90
13585;DHT22;6863;48.402;9.994;2022-09-09T05:38:40;12.90;99.90
13585;DHT22;6863;48.402;9.994;2022-09-09T05:41:06;12.90;99.90
13585;DHT22;6863;48.402;9.994;2022-09-09T05:43:33;12.90;99.90
13585;DHT22;6863;48.402;9.994;2022-09-09T05:46:07;12.80;99.90
13585;DHT22;6863;48.402;9.994;2022-09-09T05:48:35;12.70;99.90
13585;DHT22;6863;48.402;9.994;2022-09-09T05:51:03;12.60;99.90
13585;DHT22;6863;48.402;9.994;2022-09-09T05:53:30;12.60;99.90
13585;DHT22;6863;48.402;9.994;2022-09-09T05:58:33;12.70;99.90
13585;DHT22;6863;48.402;9.994;2022-09-09T06:01:13;12.80;99.90
13585;DHT22;6863;48.402;9.994;2022-09-09T06:03:41;12.90;99.90
13585;DHT22;6863;48.402;9.994;2022-09-09T06:06:10;13.00;99.90
13585;DHT22;6863;48.402;9.994;2022-09-09T06:08:38;13.10;99.90
13585;DHT22;6863;48.402;9.994;2022-09-09T06:11:05;13.20;99.90
13585;DHT22;6863;48.402;9.994;2022-09-09T06:13:31;13.40;99.90
13585;DHT22;6863;48.402;9.994;2022-09-09T06:15:57;13.50;99.90
13585;DHT22;6863;48.402;9.994;2022-09-09T06:18:24;13.60;99.90
13585;DHT22;6863;48.402;9.994;2022-09-09T06:21:04;13.80;99.90
13585;DHT22;6863;48.402;9.994;2022-09-09T06:23:31;13.80;99.90
13585;DHT22;6863;48.402;9.994;2022-09-09T06:26:09;13.80;99.90
13585;DHT22;6863;48.402;9.994;2022-09-09T06:28:36;13.80;99.90
13585;DHT22;6863;48.402;9.994;2022-09-09T06:31:07;13.60;99.90
13585;DHT22;6863;48.402;9.994;2022-09-09T06:33:34;13.60;99.90
13585;DHT22;6863;48.402;9.994;2022-09-09T06:36:02;13.80;99.90
13585;DHT22;6863;48.402;9.994;2022-09-09T06:38:29;13.90;99.90
13585;DHT22;6863;48.402;9.994;2022-09-09T06:40:57;14.10;99.90
13585;DHT22;6863;48.402;9.994;2022-09-09T06:43:24;14.20;99.90
13585;DHT22;6863;48.402;9.994;2022-09-09T06:46:02;14.40;99.90
13585;DHT22;6863;48.402;9.994;2022-09-09T06:48:28;14.60;99.90
13585;DHT22;6863;48.402;9.994;2022-09-09T06:51:06;14.70;99.90
13585;DHT22;6863;48.402;9.994;2022-09-09T06:53:36;14.80;99.90
13585;DHT22;6863;48.402;9.994;2022-09-09T06:56:15;15.00;99.90
13585;DHT22;6863;48.402;9.994;2022-09-09T06:58:43;15.10;99.90
13585;DHT22;6863;48.402;9.994;2022-09-09T07:01:14;15.30;99.90
13585;DHT22;6863;48.402;9.994;2022-09-09T07:03:41;15.60;99.90
13585;DHT22;6863;48.402;9.994;2022-09-09T07:06:12;16.10;99.90
13585;DHT22;6863;48.402;9.994;2022-09-09T07:08:39;16.60;99.90
13585;DHT22;6863;48.402;9.994;2022-09-09T07:11:06;17.00;99.90
13585;DHT22;6863;48.402;9.994;2022-09-09T07:13:33;17.60;99.90
13585;DHT22;6863;48.402;9.994;2022-09-09T07:16:13;17.70;99.90
13585;DHT22;6863;48.402;9.994;2022-09-09T07:18:40;17.50;99.90
13585;DHT22;6863;48.402;9.994;2022-09-09T07:21:05;17.70;99.90
13585;DHT22;6863;48.402;9.994;2022-09-09T07:23:32;18.00;99.90
13585;DHT22;6863;48.402;9.994;2022-09-09T07:25:58;18.50;99.90
13585;DHT22;6863;48.402;9.994;2022-09-09T07:28:25;19.00;99.90
13585;DHT22;6863;48.402;9.994;2022-09-09T07:30:59;19.40;99.60
13585;DHT22;6863;48.402;9.994;2022-09-09T07:33:28;19.70;99.30
13585;DHT22;6863;48.402;9.994;2022-09-09T07:36:03;19.40;99.00
13585;DHT22;6863;48.402;9.994;2022-09-09T07:38:28;18.90;99.90
13585;DHT22;6863;48.402;9.994;2022-09-09T07:41:03;19.00;99.90
13585;DHT22;6863;48.402;9.994;2022-09-09T07:43:28;18.70;99.90
13585;DHT22;6863;48.402;9.994;2022-09-09T07:45:58;18.60;99.90
13585;DHT22;6863;48.402;9.994;2022-09-09T07:48:23;18.50;99.90
13585;DHT22;6863;48.402;9.994;2022-09-09T07:50:49;18.80;99.90
13585;DHT22;6863;48.402;9.994;2022-09-09T07:53:14;19.20;99.90
13585;DHT22;6863;48.402;9.994;2022-09-09T07:55:40;19.40;99.70
13585;DHT22;6863;48.402;9.994;2022-09-09T07:58:05;19.40;99.60
13585;DHT22;6863;48.402;9.994;2022-09-09T08:00:31;19.60;99.20
13585;DHT22;6863;48.402;9.994;2022-09-09T08:02:58;19.20;99.40
13585;DHT22;6863;48.402;9.994;2022-09-09T08:05:27;19.00;99.90
13585;DHT22;6863;48.402;9.994;2022-09-09T08:07:53;18.60;99.90
13585;DHT22;6863;48.402;9.994;2022-09-09T08:10:19;18.60;99.90
13585;DHT22;6863;48.402;9.994;2022-09-09T08:12:44;18.50;99.90
13585;DHT22;6863;48.402;9.994;2022-09-09T08:15:10;18.30;99.90
13585;DHT22;6863;48.402;9.994;2022-09-09T08:17:36;18.70;99.90
13585;DHT22;6863;48.402;9.994;2022-09-09T08:20:03;19.40;99.40
13585;DHT22;6863;48.402;9.994;2022-09-09T08:22:31;19.90;98.10
13585;DHT22;6863;48.402;9.994;2022-09-09T08:24:57;19.70;98.50
13585;DHT22;6863;48.402;9.994;2022-09-09T08:27:23;20.60;97.80
13585;DHT22;6863;48.402;9.994;2022-09-09T08:29:49;21.90;95.50
13585;DHT22;6863;48.402;9.994;2022-09-09T08:32:15;22.50;93.90
13585;DHT22;6863;48.402;9.994;2022-09-09T08:34:41;22.30;93.10
13585;DHT22;6863;48.402;9.994;2022-09-09T08:37:10;22.10;93.40
13585;DHT22;6863;48.402;9.994;2022-09-09T08:39:36;22.50;92.90
13585;DHT22;6863;48.402;9.994;2022-09-09T08:42:35;23.10;91.80
13585;DHT22;6863;48.402;9.994;2022-09-09T08:45:23;23.20;91.00
13585;DHT22;6863;48.402;9.994;2022-09-09T08:50:26;26.70;81.00
13585;DHT22;6863;48.402;9.994;2022-09-09T08:53:23;26.20;77.20
13585;DHT22;6863;48.402;9.994;2022-09-09T08:56:00;25.90;76.60
13585;DHT22;6863;48.402;9.994;2022-09-09T08:58:33;26.20;75.00
13585;DHT22;6863;48.402;9.994;2022-09-09T09:04:24;26.00;75.30
13585;DHT22;6863;48.402;9.994;2022-09-09T09:07:16;26.40;72.50
13585;DHT22;6863;48.402;9.994;2022-09-09T09:12:23;27.40;70.00
13585;DHT22;6863;48.402;9.994;2022-09-09T09:14:50;28.40;66.90
13585;DHT22;6863;48.402;9.994;2022-09-09T09:17:21;27.80;65.90
13585;DHT22;6863;48.402;9.994;2022-09-09T09:19:48;27.10;68.60
13585;DHT22;6863;48.402;9.994;2022-09-09T09:22:19;25.80;71.30
13585;DHT22;6863;48.402;9.994;2022-09-09T09:27:28;26.60;69.40
13585;DHT22;6863;48.402;9.994;2022-09-09T09:29:57;27.30;65.60
13585;DHT22;6863;48.402;9.994;2022-09-09T09:32:24;27.50;65.30
13585;DHT22;6863;48.402;9.994;2022-09-09T09:34:55;26.00;69.50
13585;DHT22;6863;48.402;9.994;2022-09-09T09:37:31;27.20;67.90
13585;DHT22;6863;48.402;9.994;2022-09-09T09:40:17;28.90;62.70
13585;DHT22;6863;48.402;9.994;2022-09-09T09:42:58;30.70;57.20
13585;DHT22;6863;48.402;9.994;2022-09-09T09:45:44;30.90;55.10
13585;DHT22;6863;48.402;9.994;2022-09-09T09:48:13;30.90;55.20
13585;DHT22;6863;48.402;9.994;2022-09-09T09:53:37;30.40;53.00
13585;DHT22;6863;48.402;9.994;2022-09-09T09:56:05;31.30;51.60
13585;DHT22;6863;48.402;9.994;2022-09-09T09:58:37;33.10;48.40
13585;DHT22;6863;48.402;9.994;2022-09-09T10:01:04;32.50;48.60
13585;DHT22;6863;48.402;9.994;2022-09-09T10:03:31;30.50;50.00
13585;DHT22;6863;48.402;9.994;2022-09-09T10:05:58;30.10;51.20
13585;DHT22;6863;48.402;9.994;2022-09-09T10:08:25;30.10;51.70
13585;DHT22;6863;48.402;9.994;2022-09-09T10:14:23;31.40;48.40
13585;DHT22;6863;48.402;9.994;2022-09-09T10:17:11;28.90;51.80
13585;DHT22;6863;48.402;9.994;2022-09-09T10:19:45;31.10;50.00
13585;DHT22;6863;48.402;9.994;2022-09-09T10:22:36;32.60;44.80
13585;DHT22;6863;48.402;9.994;2022-09-09T10:31:29;30.60;47.90
13585;DHT22;6863;48.402;9.994;2022-09-09T10:34:50;31.00;47.30
13585;DHT22;6863;48.402;9.994;2022-09-09T10:37:41;31.60;45.70
13585;DHT22;6863;48.402;9.994;2022-09-09T10:43:04;30.40;44.80
13585;DHT22;6863;48.402;9.994;2022-09-09T10:45:44;28.60;48.20
13585;DHT22;6863;48.402;9.994;2022-09-09T10:48:19;25.90;54.30
13585;DHT22;6863;48.402;9.994;2022-09-09T10:51:22;25.20;56.20
13585;DHT22;6863;48.402;9.994;2022-09-09T10:56:53;25.90;55.70
13585;DHT22;6863;48.402;9.994;2022-09-09T10:59:26;27.60;52.60
13585;DHT22;6863;48.402;9.994;2022-09-09T11:02:12;28.80;50.90
13585;DHT22;6863;48.402;9.994;2022-09-09T11:04:45;29.40;47.80
13585;DHT22;6863;48.402;9.994;2022-09-09T11:07:24;30.80;45.90
13585;DHT22;6863;48.402;9.994;2022-09-09T11:09:55;31.50;42.40
13585;DHT22;6863;48.402;9.994;2022-09-09T11:12:23;31.70;41.80
13585;DHT22;6863;48.402;9.994;2022-09-09T11:15:17;31.80;42.30
13585;DHT22;6863;48.402;9.994;2022-09-09T11:17:48;32.00;41.10
13585;DHT22;6863;48.402;9.994;2022-09-09T11:20:15;31.10;42.20
13585;DHT22;6863;48.402;9.994;2022-09-09T11:22:48;31.70;41.80
13585;DHT22;6863;48.402;9.994;2022-09-09T11:30:19;31.10;40.90
13585;DHT22;6863;48.402;9.994;2022-09-09T11:41:12;26.60;48.50
13585;DHT22;6863;48.402;9.994;2022-09-09T11:43:40;25.40;50.80
13585;DHT22;6863;48.402;9.994;2022-09-09T11:46:06;26.60;49.10
13585;DHT22;6863;48.402;9.994;2022-09-09T11:48:35;27.50;47.10
13585;DHT22;6863;48.402;9.994;2022-09-09T11:51:07;26.60;48.50
13585;DHT22;6863;48.402;9.994;2022-09-09T11:56:33;24.50;52.90
13585;DHT22;6863;48.402;9.994;2022-09-09T11:59:16;24.00;54.60
13585;DHT22;6863;48.402;9.994;2022-09-09T12:01:45;24.50;53.80
13585;DHT22;6863;48.402;9.994;2022-09-09T12:04:30;27.90;47.80
13585;DHT22;6863;48.402;9.994;2022-09-09T12:14:54;34.30;36.30
13585;DHT22;6863;48.402;9.994;2022-09-09T12:17:22;36.00;33.60
13585;DHT22;6863;48.402;9.994;2022-09-09T12:19:59;33.50;34.70
13585;DHT22;6863;48.402;9.994;2022-09-09T12:25:48;33.60;35.70
13585;DHT22;6863;48.402;9.994;2022-09-09T12:28:21;32.70;34.70
13585;DHT22;6863;48.402;9.994;2022-09-09T12:31:18;33.30;34.30
13585;DHT22;6863;48.402;9.994;2022-09-09T12:33:47;31.00;36.80
13585;DHT22;6863;48.402;9.994;2022-09-09T12:36:27;32.00;37.60
13585;DHT22;6863;48.402;9.994;2022-09-09T12:38:54;32.50;37.10
13585;DHT22;6863;48.402;9.994;2022-09-09T12:41:24;32.70;36.80
13585;DHT22;6863;48.402;9.994;2022-09-09T12:43:50;32.60;37.60
13585;DHT22;6863;48.402;9.994;2022-09-09T12:46:26;34.80;35.00
13585;DHT22;6863;48.402;9.994;2022-09-09T12:48:53;34.30;34.30
13585;DHT22;6863;48.402;9.994;2022-09-09T12:51:25;34.00;34.50
13585;DHT22;6863;48.402;9.994;2022-09-09T12:53:52;33.50;34.20
13585;DHT22;6863;48.402;9.994;2022-09-09T12:56:23;31.00;37.40
13585;DHT22;6863;48.402;9.994;2022-09-09T12:58:53;29.90;39.90
13585;DHT22;6863;48.402;9.994;2022-09-09T13:01:24;27.90;42.50
13585;DHT22;6863;48.402;9.994;2022-09-09T13:03:50;26.60;45.10
13585;DHT22;6863;48.402;9.994;2022-09-09T13:06:24;26.00;47.60
13585;DHT22;6863;48.402;9.994;2022-09-09T13:08:52;26.00;48.20
13585;DHT22;6863;48.402;9.994;2022-09-09T13:11:39;25.40;49.30
13585;DHT22;6863;48.402;9.994;2022-09-09T13:14:26;24.20;51.00
13585;DHT22;6863;48.402;9.994;2022-09-09T13:16:56;23.90;52.10
13585;DHT22;6863;48.402;9.994;2022-09-09T13:19:22;23.70;52.80
13585;DHT22;6863;48.402;9.994;2022-09-09T13:21:51;24.00;53.20
13585;DHT22;6863;48.402;9.994;2022-09-09T13:24:31;24.00;52.80
13585;DHT22;6863;48.402;9.994;2022-09-09T13:27:19;24.30;52.20
13585;DHT22;6863;48.402;9.994;2022-09-09T13:29:53;24.60;51.70
13585;DHT22;6863;48.402;9.994;2022-09-09T13:32:20;24.80;51.30
13585;DHT22;6863;48.402;9.994;2022-09-09T13:34:54;24.40;51.60
13585;DHT22;6863;48.402;9.994;2022-09-09T13:37:38;24.40;52.20
13585;DHT22;6863;48.402;9.994;2022-09-09T13:40:17;26.00;49.40
13585;DHT22;6863;48.402;9.994;2022-09-09T13:42:44;27.40;46.50
13585;DHT22;6863;48.402;9.994;2022-09-09T13:45:24;28.90;43.30
13585;DHT22;6863;48.402;9.994;2022-09-09T13:47:52;29.70;42.40
13585;DHT22;6863;48.402;9.994;2022-09-09T13:53:06;30.90;37.80
13585;DHT22;6863;48.402;9.994;2022-09-09T13:55:32;30.60;37.80
13585;DHT22;6863;48.402;9.994;2022-09-09T13:58:00;29.40;38.50
13585;DHT22;6863;48.402;9.994;2022-09-09T14:00:29;30.10;38.60
13585;DHT22;6863;48.402;9.994;2022-09-09T14:02:55;30.60;37.90
13585;DHT22;6863;48.402;9.994;2022-09-09T14:05:21;29.50;38.10
13585;DHT22;6863;48.402;9.994;2022-09-09T14:07:48;29.80;38.50
13585;DHT22;6863;48.402;9.994;2022-09-09T14:10:14;30.60;37.30
13585;DHT22;6863;48.402;9.994;2022-09-09T14:12:40;30.80;36.60
13585;DHT22;6863;48.402;9.994;2022-09-09T14:15:09;29.90;37.90
13585;DHT22;6863;48.402;9.994;2022-09-09T14:17:34;29.60;38.90
13585;DHT22;6863;48.402;9.994;2022-09-09T14:20:05;29.50;38.80
13585;DHT22;6863;48.402;9.994;2022-09-09T14:22:35;29.40;39.30
13585;DHT22;6863;48.402;9.994;2022-09-09T14:25:00;28.90;40.30
13585;DHT22;6863;48.402;9.994;2022-09-09T14:27:26;30.10;39.10
13585;DHT22;6863;48.402;9.994;2022-09-09T14:29:52;29.70;39.00
13585;DHT22;6863;48.402;9.994;2022-09-09T14:32:18;28.30;41.10
13585;DHT22;6863;48.402;9.994;2022-09-09T14:34:44;26.20;45.10
13585;DHT22;6863;48.402;9.994;2022-09-09T14:37:10;25.40;47.40
13585;DHT22;6863;48.402;9.994;2022-09-09T14:39:36;24.90;48.80
13585;DHT22;6863;48.402;9.994;2022-09-09T14:42:01;25.00;48.30
13585;DHT22;6863;48.402;9.994;2022-09-09T14:44:28;24.90;47.60
13585;DHT22;6863;48.402;9.994;2022-09-09T14:46:53;24.50;48.20
13585;DHT22;6863;48.402;9.994;2022-09-09T14:49:19;24.70;48.50
13585;DHT22;6863;48.402;9.994;2022-09-09T14:51:45;26.60;46.00
13585;DHT22;6863;48.402;9.994;2022-09-09T14:54:11;28.50;42.70
13585;DHT22;6863;48.402;9.994;2022-09-09T14:56:37;31.10;38.40
13585;DHT22;6863;48.402;9.994;2022-09-09T14:59:03;32.80;35.30
13585;DHT22;6863;48.402;9.994;2022-09-09T15:01:31;31.70;35.00
13585;DHT22;6863;48.402;9.994;2022-09-09T15:03:59;29.70;37.80
13585;DHT22;6863;48.402;9.994;2022-09-09T15:06:27;28.30;39.90
13585;DHT22;6863;48.402;9.994;2022-09-09T15:08:54;27.90;41.80
13585;DHT22;6863;48.402;9.994;2022-09-09T15:11:25;29.20;40.10
13585;DHT22;6863;48.402;9.994;2022-09-09T15:13:51;30.30;38.40
13585;DHT22;6863;48.402;9.994;2022-09-09T15:16:19;30.00;38.60
13585;DHT22;6863;48.402;9.994;2022-09-09T15:18:46;30.20;38.70
13585;DHT22;6863;48.402;9.994;2022-09-09T15:21:13;31.10;37.20
13585;DHT22;6863;48.402;9.994;2022-09-09T15:23:39;31.30;35.50
13585;DHT22;6863;48.402;9.994;2022-09-09T15:26:06;30.60;36.00
13585;DHT22;6863;48.402;9.994;2022-09-09T15:28:33;30.10;37.50
13585;DHT22;6863;48.402;9.994;2022-09-09T15:31:06;30.40;37.10
13585;DHT22;6863;48.402;9.994;2022-09-09T15:33:32;30.40;36.70
13585;DHT22;6863;48.402;9.994;2022-09-09T15:35:58;29.80;37.60
13585;DHT22;6863;48.402;9.994;2022-09-09T15:38:24;29.50;38.60
13585;DHT22;6863;48.402;9.994;2022-09-09T15:40:54;29.40;38.50
13585;DHT22;6863;48.402;9.994;2022-09-09T15:43:20;30.00;38.20
13585;DHT22;6863;48.402;9.994;2022-09-09T15:45:46;30.70;37.30
13585;DHT22;6863;48.402;9.994;2022-09-09T15:48:14;30.50;37.30
13585;DHT22;6863;48.402;9.994;2022-09-09T15:53:11;29.70;38.00
13585;DHT22;6863;48.402;9.994;2022-09-09T15:55:38;29.40;38.20
13585;DHT22;6863;48.402;9.994;2022-09-09T15:58:03;29.30;38.20
13585;DHT22;6863;48.402;9.994;2022-09-09T16:00:29;27.80;39.30
13585;DHT22;6863;48.402;9.994;2022-09-09T16:02:54;27.20;41.10
13585;DHT22;6863;48.402;9.994;2022-09-09T16:05:20;26.60;42.10
13585;DHT22;6863;48.402;9.994;2022-09-09T16:07:46;26.20;43.10
13585;DHT22;6863;48.402;9.994;2022-09-09T16:10:13;25.40;44.20
13585;DHT22;6863;48.402;9.994;2022-09-09T16:12:39;24.60;45.50
13585;DHT22;6863;48.402;9.994;2022-09-09T16:15:05;24.20;46.40
13585;DHT22;6863;48.402;9.994;2022-09-09T16:17:31;23.80;47.40
13585;DHT22;6863;48.402;9.994;2022-09-09T16:20:03;23.40;48.30
13585;DHT22;6863;48.402;9.994;2022-09-09T16:22:30;23.10;48.40
13585;DHT22;6863;48.402;9.994;2022-09-09T16:24:56;22.70;49.10
13585;DHT22;6863;48.402;9.994;2022-09-09T16:27:21;22.30;49.50
13585;DHT22;6863;48.402;9.994;2022-09-09T16:29:48;22.20;50.10
13585;DHT22;6863;48.402;9.994;2022-09-09T16:32:14;22.10;50.20
13585;DHT22;6863;48.402;9.994;2022-09-09T16:34:40;22.00;50.70
13585;DHT22;6863;48.402;9.994;2022-09-09T16:37:05;21.90;51.30
13585;DHT22;6863;48.402;9.994;2022-09-09T16:39:31;22.00;51.40
13585;DHT22;6863;48.402;9.994;2022-09-09T16:41:57;21.90;51.10
13585;DHT22;6863;48.402;9.994;2022-09-09T16:44:22;21.80;51.20
13585;DHT22;6863;48.402;9.994;2022-09-09T16:46:48;21.90;51.40
13585;DHT22;6863;48.402;9.994;2022-09-09T16:49:17;21.90;51.30
13585;DHT22;6863;48.402;9.994;2022-09-09T16:51:47;21.70;51.80
13585;DHT22;6863;48.402;9.994;2022-09-09T16:54:14;21.60;52.30
13585;DHT22;6863;48.402;9.994;2022-09-09T16:56:43;21.40;52.60
13585;DHT22;6863;48.402;9.994;2022-09-09T16:59:11;21.30;52.40
13585;DHT22;6863;48.402;9.994;2022-09-09T17:01:39;21.30;52.90
13585;DHT22;6863;48.402;9.994;2022-09-09T17:04:09;21.20;53.20
13585;DHT22;6863;48.402;9.994;2022-09-09T17:06:35;21.10;53.40
13585;DHT22;6863;48.402;9.994;2022-09-09T17:09:05;21.10;53.50
13585;DHT22;6863;48.402;9.994;2022-09-09T17:11:31;21.00;53.70
13585;DHT22;6863;48.402;9.994;2022-09-09T17:13:58;20.90;54.00
13585;DHT22;6863;48.402;9.994;2022-09-09T17:16:26;20.80;54.60
13585;DHT22;6863;48.402;9.994;2022-09-09T17:18:53;20.70;55.10
13585;DHT22;6863;48.402;9.994;2022-09-09T17:21:23;20.10;58.40
13585;DHT22;6863;48.402;9.994;2022-09-09T17:23:51;19.60;60.30
13585;DHT22;6863;48.402;9.994;2022-09-09T17:26:19;19.40;61.60
13585;DHT22;6863;48.402;9.994;2022-09-09T17:28:46;19.10;63.10
13585;DHT22;6863;48.402;9.994;2022-09-09T17:31:14;18.90;64.90
13585;DHT22;6863;48.402;9.994;2022-09-09T17:33:42;18.70;65.70
13585;DHT22;6863;48.402;9.994;2022-09-09T17:36:11;18.60;66.10
13585;DHT22;6863;48.402;9.994;2022-09-09T17:38:37;18.60;66.70
13585;DHT22;6863;48.402;9.994;2022-09-09T17:41:08;18.50;65.50
13585;DHT22;6863;48.402;9.994;2022-09-09T17:43:35;18.40;66.30
13585;DHT22;6863;48.402;9.994;2022-09-09T17:46:21;18.40;65.90